CYWA

Petawawa Airport

Petawawa, Ontario, Canada
METAR CYWA 190500Z AUTO 28003KT 9SM OVC033 11/09 A2996 RMK SLP150
Observed Flight Rules
Sep-19 @ 05:00 UTC (53 minutes ago) Visual Flight Rules
Wind Visibility Clouds
280° at 3 knots 9 miles
  • Overcast at 3,300' AGL
Temperatures Readings
Current 11°C / 52°F
Dewpoint 9°C / 48°F
Humidity 88%
Altimeter 29.96" Hg
Pressure 1015 hPa
Elevation 130
METAR CYWA 190500Z AUTO 28003KT 9SM OVC033 11/09 A2996 RMK SLP150
Observed Flight Rules
Sep-19 @ 05:00 UTC
(53 minutes ago)
VFR
Wind Visibility
280° at 3 knots 9 miles
Clouds
  • Overcast at 3,300' AGL
Temperature Dewpoint
11°C / 52°F 9°C / 48°F
Humidity Altimeter Pressure
88% 29.96" Hg 1015 hPa